sensor_id;sensor_type;location;lat;lon;timestamp;P1;durP1;ratioP1;P2;durP2;ratioP2
23406;SDS011;11876;53.438;18.942;2023-04-16T00:00:06;12.95;;;11.63;;
23406;SDS011;11876;53.438;18.942;2023-04-16T00:03:11;13.45;;;11.07;;
23406;SDS011;11876;53.438;18.942;2023-04-16T00:06:14;14.70;;;12.75;;
23406;SDS011;11876;53.438;18.942;2023-04-16T00:09:17;18.15;;;14.77;;
23406;SDS011;11876;53.438;18.942;2023-04-16T00:12:19;14.15;;;12.68;;
23406;SDS011;11876;53.438;18.942;2023-04-16T00:15:21;14.60;;;12.95;;
23406;SDS011;11876;53.438;18.942;2023-04-16T00:18:24;13.23;;;11.50;;
23406;SDS011;11876;53.438;18.942;2023-04-16T00:21:26;14.75;;;13.23;;
23406;SDS011;11876;53.438;18.942;2023-04-16T00:24:29;16.50;;;12.02;;
23406;SDS011;11876;53.438;18.942;2023-04-16T00:27:31;16.77;;;12.88;;
23406;SDS011;11876;53.438;18.942;2023-04-16T00:30:34;13.53;;;12.13;;
23406;SDS011;11876;53.438;18.942;2023-04-16T00:33:37;13.02;;;10.50;;
23406;SDS011;11876;53.438;18.942;2023-04-16T00:36:39;13.15;;;11.57;;
23406;SDS011;11876;53.438;18.942;2023-04-16T00:39:42;15.00;;;12.25;;
23406;SDS011;11876;53.438;18.942;2023-04-16T00:42:44;12.32;;;10.93;;
23406;SDS011;11876;53.438;18.942;2023-04-16T00:45:47;13.27;;;11.70;;
23406;SDS011;11876;53.438;18.942;2023-04-16T00:48:50;15.27;;;12.50;;
23406;SDS011;11876;53.438;18.942;2023-04-16T00:51:54;12.45;;;10.80;;
23406;SDS011;11876;53.438;18.942;2023-04-16T00:54:57;13.20;;;11.68;;
23406;SDS011;11876;53.438;18.942;2023-04-16T00:57:59;13.90;;;11.00;;
23406;SDS011;11876;53.438;18.942;2023-04-16T01:01:02;13.70;;;12.23;;
23406;SDS011;11876;53.438;18.942;2023-04-16T01:04:04;14.73;;;11.77;;
23406;SDS011;11876;53.438;18.942;2023-04-16T01:07:07;11.43;;;10.23;;
23406;SDS011;11876;53.438;18.942;2023-04-16T01:10:10;9.65;;;7.82;;
23406;SDS011;11876;53.438;18.942;2023-04-16T01:13:13;14.77;;;11.63;;
23406;SDS011;11876;53.438;18.942;2023-04-16T01:16:16;13.35;;;11.98;;
23406;SDS011;11876;53.438;18.942;2023-04-16T01:19:18;15.75;;;13.18;;
23406;SDS011;11876;53.438;18.942;2023-04-16T01:22:21;16.05;;;14.13;;
23406;SDS011;11876;53.438;18.942;2023-04-16T01:25:23;13.80;;;12.35;;
23406;SDS011;11876;53.438;18.942;2023-04-16T01:28:26;16.33;;;12.68;;
23406;SDS011;11876;53.438;18.942;2023-04-16T01:31:28;14.30;;;12.80;;
23406;SDS011;11876;53.438;18.942;2023-04-16T01:34:54;18.60;;;13.77;;
23406;SDS011;11876;53.438;18.942;2023-04-16T01:37:56;15.98;;;12.80;;
23406;SDS011;11876;53.438;18.942;2023-04-16T01:40:59;16.73;;;13.43;;
23406;SDS011;11876;53.438;18.942;2023-04-16T01:44:02;15.43;;;12.07;;
23406;SDS011;11876;53.438;18.942;2023-04-16T01:47:05;18.13;;;13.50;;
23406;SDS011;11876;53.438;18.942;2023-04-16T01:50:07;14.70;;;12.98;;
23406;SDS011;11876;53.438;18.942;2023-04-16T01:53:10;15.57;;;13.88;;
23406;SDS011;11876;53.438;18.942;2023-04-16T01:56:12;17.35;;;14.25;;
23406;SDS011;11876;53.438;18.942;2023-04-16T01:59:15;17.40;;;13.05;;
23406;SDS011;11876;53.438;18.942;2023-04-16T02:02:17;16.13;;;12.82;;
23406;SDS011;11876;53.438;18.942;2023-04-16T02:05:20;18.10;;;14.20;;
23406;SDS011;11876;53.438;18.942;2023-04-16T02:08:22;22.77;;;15.00;;
23406;SDS011;11876;53.438;18.942;2023-04-16T02:11:24;16.25;;;13.02;;
23406;SDS011;11876;53.438;18.942;2023-04-16T02:14:28;12.20;;;10.03;;
23406;SDS011;11876;53.438;18.942;2023-04-16T02:17:31;19.20;;;13.43;;
23406;SDS011;11876;53.438;18.942;2023-04-16T02:20:44;17.17;;;13.00;;
23406;SDS011;11876;53.438;18.942;2023-04-16T02:23:48;20.35;;;15.30;;
23406;SDS011;11876;53.438;18.942;2023-04-16T02:26:58;17.75;;;13.27;;
23406;SDS011;11876;53.438;18.942;2023-04-16T02:30:01;19.23;;;14.80;;
23406;SDS011;11876;53.438;18.942;2023-04-16T02:33:07;16.77;;;12.93;;
23406;SDS011;11876;53.438;18.942;2023-04-16T02:36:13;15.77;;;13.27;;
23406;SDS011;11876;53.438;18.942;2023-04-16T02:39:16;19.58;;;14.02;;
23406;SDS011;11876;53.438;18.942;2023-04-16T02:42:18;18.05;;;14.35;;
23406;SDS011;11876;53.438;18.942;2023-04-16T02:45:21;22.40;;;19.38;;
23406;SDS011;11876;53.438;18.942;2023-04-16T02:48:23;19.17;;;15.57;;
23406;SDS011;11876;53.438;18.942;2023-04-16T02:51:26;18.20;;;14.70;;
23406;SDS011;11876;53.438;18.942;2023-04-16T02:54:28;24.70;;;16.83;;
23406;SDS011;11876;53.438;18.942;2023-04-16T02:57:31;14.98;;;12.65;;
23406;SDS011;11876;53.438;18.942;2023-04-16T03:00:33;18.73;;;14.45;;
23406;SDS011;11876;53.438;18.942;2023-04-16T03:03:36;18.10;;;14.02;;
23406;SDS011;11876;53.438;18.942;2023-04-16T03:06:38;21.17;;;14.05;;
23406;SDS011;11876;53.438;18.942;2023-04-16T03:09:41;17.35;;;13.75;;
23406;SDS011;11876;53.438;18.942;2023-04-16T03:12:43;17.83;;;14.60;;
23406;SDS011;11876;53.438;18.942;2023-04-16T03:15:48;18.13;;;13.88;;
23406;SDS011;11876;53.438;18.942;2023-04-16T03:18:51;15.25;;;12.77;;
23406;SDS011;11876;53.438;18.942;2023-04-16T03:21:54;18.60;;;13.95;;
23406;SDS011;11876;53.438;18.942;2023-04-16T03:24:56;18.90;;;13.35;;
23406;SDS011;11876;53.438;18.942;2023-04-16T03:27:59;16.52;;;13.73;;
23406;SDS011;11876;53.438;18.942;2023-04-16T03:31:04;15.45;;;12.48;;
23406;SDS011;11876;53.438;18.942;2023-04-16T03:37:13;17.40;;;11.57;;
23406;SDS011;11876;53.438;18.942;2023-04-16T03:40:15;17.38;;;12.48;;
23406;SDS011;11876;53.438;18.942;2023-04-16T03:43:18;17.70;;;13.15;;
23406;SDS011;11876;53.438;18.942;2023-04-16T03:46:21;16.70;;;12.40;;
23406;SDS011;11876;53.438;18.942;2023-04-16T03:49:23;18.88;;;13.57;;
23406;SDS011;11876;53.438;18.942;2023-04-16T03:52:26;14.57;;;12.25;;
23406;SDS011;11876;53.438;18.942;2023-04-16T03:55:30;15.77;;;12.00;;
23406;SDS011;11876;53.438;18.942;2023-04-16T03:58:32;16.73;;;12.93;;
23406;SDS011;11876;53.438;18.942;2023-04-16T04:01:34;20.08;;;13.07;;
23406;SDS011;11876;53.438;18.942;2023-04-16T04:04:38;15.10;;;11.32;;
23406;SDS011;11876;53.438;18.942;2023-04-16T04:07:43;17.88;;;12.63;;
23406;SDS011;11876;53.438;18.942;2023-04-16T04:10:47;25.02;;;18.67;;
23406;SDS011;11876;53.438;18.942;2023-04-16T04:13:53;18.85;;;15.82;;
23406;SDS011;11876;53.438;18.942;2023-04-16T04:16:55;21.73;;;16.83;;
23406;SDS011;11876;53.438;18.942;2023-04-16T04:19:58;16.00;;;13.50;;
23406;SDS011;11876;53.438;18.942;2023-04-16T04:23:04;16.98;;;13.02;;
23406;SDS011;11876;53.438;18.942;2023-04-16T04:26:07;14.40;;;11.50;;
23406;SDS011;11876;53.438;18.942;2023-04-16T04:29:09;18.20;;;10.73;;
23406;SDS011;11876;53.438;18.942;2023-04-16T04:32:12;14.90;;;11.23;;
23406;SDS011;11876;53.438;18.942;2023-04-16T04:35:15;13.70;;;11.43;;
23406;SDS011;11876;53.438;18.942;2023-04-16T04:38:18;12.80;;;10.35;;
23406;SDS011;11876;53.438;18.942;2023-04-16T04:41:23;13.25;;;9.75;;
23406;SDS011;11876;53.438;18.942;2023-04-16T04:47:30;11.32;;;9.77;;
23406;SDS011;11876;53.438;18.942;2023-04-16T04:50:32;12.35;;;9.30;;
23406;SDS011;11876;53.438;18.942;2023-04-16T04:53:36;11.70;;;8.88;;
23406;SDS011;11876;53.438;18.942;2023-04-16T04:56:39;15.30;;;11.98;;
23406;SDS011;11876;53.438;18.942;2023-04-16T04:59:41;21.08;;;13.43;;
23406;SDS011;11876;53.438;18.942;2023-04-16T05:02:45;16.67;;;13.70;;
23406;SDS011;11876;53.438;18.942;2023-04-16T05:05:48;16.20;;;12.20;;
23406;SDS011;11876;53.438;18.942;2023-04-16T05:08:50;15.75;;;12.07;;
23406;SDS011;11876;53.438;18.942;2023-04-16T05:11:53;15.75;;;12.75;;
23406;SDS011;11876;53.438;18.942;2023-04-16T05:14:55;18.40;;;12.82;;
23406;SDS011;11876;53.438;18.942;2023-04-16T05:17:57;16.77;;;12.38;;
23406;SDS011;11876;53.438;18.942;2023-04-16T05:21:00;18.13;;;14.10;;
23406;SDS011;11876;53.438;18.942;2023-04-16T05:24:03;13.52;;;11.10;;
23406;SDS011;11876;53.438;18.942;2023-04-16T05:27:05;21.05;;;16.70;;
23406;SDS011;11876;53.438;18.942;2023-04-16T05:30:08;21.65;;;18.60;;
23406;SDS011;11876;53.438;18.942;2023-04-16T05:33:11;19.08;;;16.08;;
23406;SDS011;11876;53.438;18.942;2023-04-16T05:36:13;26.85;;;23.85;;
23406;SDS011;11876;53.438;18.942;2023-04-16T05:39:16;26.83;;;20.38;;
23406;SDS011;11876;53.438;18.942;2023-04-16T05:42:19;19.00;;;15.82;;
23406;SDS011;11876;53.438;18.942;2023-04-16T05:45:21;19.25;;;16.02;;
23406;SDS011;11876;53.438;18.942;2023-04-16T05:48:25;17.75;;;14.80;;
23406;SDS011;11876;53.438;18.942;2023-04-16T05:51:27;19.13;;;13.70;;
23406;SDS011;11876;53.438;18.942;2023-04-16T05:54:30;15.15;;;12.32;;
23406;SDS011;11876;53.438;18.942;2023-04-16T05:57:32;17.17;;;13.00;;
23406;SDS011;11876;53.438;18.942;2023-04-16T06:00:35;15.50;;;12.18;;
23406;SDS011;11876;53.438;18.942;2023-04-16T06:03:37;13.60;;;11.05;;
23406;SDS011;11876;53.438;18.942;2023-04-16T06:06:40;15.38;;;12.82;;
23406;SDS011;11876;53.438;18.942;2023-04-16T06:09:43;14.63;;;11.48;;
23406;SDS011;11876;53.438;18.942;2023-04-16T06:12:46;11.10;;;9.10;;
23406;SDS011;11876;53.438;18.942;2023-04-16T06:15:48;13.57;;;11.63;;
23406;SDS011;11876;53.438;18.942;2023-04-16T06:18:51;15.68;;;10.77;;
23406;SDS011;11876;53.438;18.942;2023-04-16T06:21:53;12.40;;;10.43;;
23406;SDS011;11876;53.438;18.942;2023-04-16T06:24:56;12.15;;;10.68;;
23406;SDS011;11876;53.438;18.942;2023-04-16T06:27:58;12.63;;;11.00;;
23406;SDS011;11876;53.438;18.942;2023-04-16T06:31:01;16.55;;;10.68;;
23406;SDS011;11876;53.438;18.942;2023-04-16T06:34:03;11.30;;;9.70;;
23406;SDS011;11876;53.438;18.942;2023-04-16T06:37:06;14.15;;;11.43;;
23406;SDS011;11876;53.438;18.942;2023-04-16T06:40:11;21.65;;;19.33;;
23406;SDS011;11876;53.438;18.942;2023-04-16T06:43:13;12.15;;;10.77;;
23406;SDS011;11876;53.438;18.942;2023-04-16T06:46:16;14.88;;;12.40;;
23406;SDS011;11876;53.438;18.942;2023-04-16T06:49:18;13.95;;;10.90;;
23406;SDS011;11876;53.438;18.942;2023-04-16T06:52:22;11.18;;;10.02;;
23406;SDS011;11876;53.438;18.942;2023-04-16T06:55:24;11.00;;;8.75;;
23406;SDS011;11876;53.438;18.942;2023-04-16T06:58:27;10.00;;;8.60;;
23406;SDS011;11876;53.438;18.942;2023-04-16T07:01:29;10.63;;;8.48;;
23406;SDS011;11876;53.438;18.942;2023-04-16T07:04:32;9.98;;;7.85;;
23406;SDS011;11876;53.438;18.942;2023-04-16T07:07:35;12.40;;;10.27;;
23406;SDS011;11876;53.438;18.942;2023-04-16T07:10:37;8.80;;;7.82;;
23406;SDS011;11876;53.438;18.942;2023-04-16T07:13:39;35.28;;;26.17;;
23406;SDS011;11876;53.438;18.942;2023-04-16T07:16:42;23.35;;;20.38;;
23406;SDS011;11876;53.438;18.942;2023-04-16T07:19:45;16.67;;;14.85;;
23406;SDS011;11876;53.438;18.942;2023-04-16T07:22:47;14.35;;;12.95;;
23406;SDS011;11876;53.438;18.942;2023-04-16T07:25:50;12.57;;;11.38;;
23406;SDS011;11876;53.438;18.942;2023-04-16T07:28:53;10.82;;;9.75;;
23406;SDS011;11876;53.438;18.942;2023-04-16T07:31:56;7.75;;;6.95;;
23406;SDS011;11876;53.438;18.942;2023-04-16T07:34:59;5.47;;;4.70;;
23406;SDS011;11876;53.438;18.942;2023-04-16T07:38:02;6.80;;;5.75;;
23406;SDS011;11876;53.438;18.942;2023-04-16T07:41:06;5.85;;;5.10;;
23406;SDS011;11876;53.438;18.942;2023-04-16T07:44:09;6.85;;;5.70;;
23406;SDS011;11876;53.438;18.942;2023-04-16T07:47:11;7.13;;;6.43;;
23406;SDS011;11876;53.438;18.942;2023-04-16T07:50:14;6.15;;;5.43;;
23406;SDS011;11876;53.438;18.942;2023-04-16T07:53:16;6.93;;;4.53;;
23406;SDS011;11876;53.438;18.942;2023-04-16T07:56:19;4.57;;;4.07;;
23406;SDS011;11876;53.438;18.942;2023-04-16T07:59:22;6.70;;;6.00;;
23406;SDS011;11876;53.438;18.942;2023-04-16T08:02:25;9.65;;;8.77;;
23406;SDS011;11876;53.438;18.942;2023-04-16T08:05:28;5.93;;;5.43;;
23406;SDS011;11876;53.438;18.942;2023-04-16T08:08:31;9.05;;;8.15;;
23406;SDS011;11876;53.438;18.942;2023-04-16T08:11:33;5.10;;;4.60;;
23406;SDS011;11876;53.438;18.942;2023-04-16T08:14:35;5.28;;;4.88;;
23406;SDS011;11876;53.438;18.942;2023-04-16T08:17:38;3.85;;;3.50;;
23406;SDS011;11876;53.438;18.942;2023-04-16T08:20:40;4.20;;;3.80;;
23406;SDS011;11876;53.438;18.942;2023-04-16T08:23:43;5.32;;;4.82;;
23406;SDS011;11876;53.438;18.942;2023-04-16T08:26:46;3.47;;;3.17;;
23406;SDS011;11876;53.438;18.942;2023-04-16T08:29:49;3.78;;;3.47;;
23406;SDS011;11876;53.438;18.942;2023-04-16T08:32:52;4.10;;;3.70;;
23406;SDS011;11876;53.438;18.942;2023-04-16T08:35:56;3.53;;;3.22;;
23406;SDS011;11876;53.438;18.942;2023-04-16T08:39:01;3.35;;;3.05;;
23406;SDS011;11876;53.438;18.942;2023-04-16T08:42:05;5.35;;;3.80;;
23406;SDS011;11876;53.438;18.942;2023-04-16T08:45:15;4.18;;;3.83;;
23406;SDS011;11876;53.438;18.942;2023-04-16T08:48:18;14.25;;;9.95;;
23406;SDS011;11876;53.438;18.942;2023-04-16T08:51:22;5.70;;;4.90;;
23406;SDS011;11876;53.438;18.942;2023-04-16T08:57:45;11.07;;;9.80;;
23406;SDS011;11876;53.438;18.942;2023-04-16T09:01:04;6.53;;;5.80;;
23406;SDS011;11876;53.438;18.942;2023-04-16T09:04:07;7.20;;;6.03;;
23406;SDS011;11876;53.438;18.942;2023-04-16T09:07:10;6.90;;;6.00;;
23406;SDS011;11876;53.438;18.942;2023-04-16T09:10:13;7.63;;;6.32;;
23406;SDS011;11876;53.438;18.942;2023-04-16T09:13:16;6.57;;;4.28;;
23406;SDS011;11876;53.438;18.942;2023-04-16T09:16:21;15.55;;;10.68;;
23406;SDS011;11876;53.438;18.942;2023-04-16T09:19:23;11.18;;;7.80;;
23406;SDS011;11876;53.438;18.942;2023-04-16T09:22:26;5.65;;;4.00;;
23406;SDS011;11876;53.438;18.942;2023-04-16T09:25:32;16.08;;;11.38;;
23406;SDS011;11876;53.438;18.942;2023-04-16T09:28:45;10.25;;;7.85;;
23406;SDS011;11876;53.438;18.942;2023-04-16T09:32:00;3.25;;;2.95;;
23406;SDS011;11876;53.438;18.942;2023-04-16T09:35:04;3.60;;;2.58;;
23406;SDS011;11876;53.438;18.942;2023-04-16T09:38:06;2.40;;;2.20;;
23406;SDS011;11876;53.438;18.942;2023-04-16T09:41:09;6.53;;;4.38;;
23406;SDS011;11876;53.438;18.942;2023-04-16T09:44:11;2.00;;;1.80;;
23406;SDS011;11876;53.438;18.942;2023-04-16T09:47:14;4.20;;;3.42;;
23406;SDS011;11876;53.438;18.942;2023-04-16T09:50:17;5.45;;;4.72;;
23406;SDS011;11876;53.438;18.942;2023-04-16T09:53:24;10.88;;;9.07;;
23406;SDS011;11876;53.438;18.942;2023-04-16T09:56:27;9.93;;;5.95;;
23406;SDS011;11876;53.438;18.942;2023-04-16T09:59:30;3.10;;;2.53;;
23406;SDS011;11876;53.438;18.942;2023-04-16T10:02:35;5.75;;;4.68;;
23406;SDS011;11876;53.438;18.942;2023-04-16T10:05:40;3.22;;;2.97;;
23406;SDS011;11876;53.438;18.942;2023-04-16T10:08:43;6.57;;;5.97;;
23406;SDS011;11876;53.438;18.942;2023-04-16T10:11:50;3.22;;;3.03;;
23406;SDS011;11876;53.438;18.942;2023-04-16T10:14:53;1.92;;;1.83;;
23406;SDS011;11876;53.438;18.942;2023-04-16T10:17:55;5.90;;;2.55;;
23406;SDS011;11876;53.438;18.942;2023-04-16T10:20:58;6.32;;;3.47;;
23406;SDS011;11876;53.438;18.942;2023-04-16T10:24:01;4.25;;;2.88;;
23406;SDS011;11876;53.438;18.942;2023-04-16T10:27:04;4.85;;;3.72;;
23406;SDS011;11876;53.438;18.942;2023-04-16T10:30:07;8.98;;;4.78;;
23406;SDS011;11876;53.438;18.942;2023-04-16T10:33:11;2.65;;;2.45;;
23406;SDS011;11876;53.438;18.942;2023-04-16T10:36:14;3.83;;;3.42;;
23406;SDS011;11876;53.438;18.942;2023-04-16T10:39:19;4.45;;;3.22;;
23406;SDS011;11876;53.438;18.942;2023-04-16T10:42:23;7.63;;;4.40;;
23406;SDS011;11876;53.438;18.942;2023-04-16T10:45:30;2.78;;;2.58;;
23406;SDS011;11876;53.438;18.942;2023-04-16T10:48:34;2.80;;;2.60;;
23406;SDS011;11876;53.438;18.942;2023-04-16T10:55:03;3.53;;;3.20;;
23406;SDS011;11876;53.438;18.942;2023-04-16T11:01:31;10.57;;;5.13;;
23406;SDS011;11876;53.438;18.942;2023-04-16T11:04:38;5.60;;;4.28;;
23406;SDS011;11876;53.438;18.942;2023-04-16T11:07:43;3.53;;;3.22;;
23406;SDS011;11876;53.438;18.942;2023-04-16T11:10:50;3.47;;;3.17;;
23406;SDS011;11876;53.438;18.942;2023-04-16T11:13:53;7.00;;;3.65;;
23406;SDS011;11876;53.438;18.942;2023-04-16T11:19:59;8.40;;;5.57;;
23406;SDS011;11876;53.438;18.942;2023-04-16T11:23:02;4.82;;;4.35;;
23406;SDS011;11876;53.438;18.942;2023-04-16T11:26:05;8.02;;;4.65;;
23406;SDS011;11876;53.438;18.942;2023-04-16T11:29:12;8.68;;;5.93;;
23406;SDS011;11876;53.438;18.942;2023-04-16T11:32:19;4.32;;;3.60;;
23406;SDS011;11876;53.438;18.942;2023-04-16T11:35:23;4.78;;;3.85;;
23406;SDS011;11876;53.438;18.942;2023-04-16T11:38:35;6.72;;;4.97;;
23406;SDS011;11876;53.438;18.942;2023-04-16T11:41:41;4.30;;;3.90;;
23406;SDS011;11876;53.438;18.942;2023-04-16T11:44:44;6.65;;;4.13;;
23406;SDS011;11876;53.438;18.942;2023-04-16T11:47:47;3.22;;;3.03;;
23406;SDS011;11876;53.438;18.942;2023-04-16T11:50:56;4.78;;;4.15;;
23406;SDS011;11876;53.438;18.942;2023-04-16T11:53:59;6.57;;;5.72;;
23406;SDS011;11876;53.438;18.942;2023-04-16T11:57:03;6.47;;;4.70;;
23406;SDS011;11876;53.438;18.942;2023-04-16T12:00:06;3.88;;;3.50;;
23406;SDS011;11876;53.438;18.942;2023-04-16T12:03:14;3.78;;;3.20;;
23406;SDS011;11876;53.438;18.942;2023-04-16T12:06:17;5.90;;;4.63;;
23406;SDS011;11876;53.438;18.942;2023-04-16T12:09:23;4.00;;;3.47;;
23406;SDS011;11876;53.438;18.942;2023-04-16T12:12:27;4.47;;;4.07;;
23406;SDS011;11876;53.438;18.942;2023-04-16T12:15:42;7.55;;;3.92;;
23406;SDS011;11876;53.438;18.942;2023-04-16T12:22:04;3.75;;;3.28;;
23406;SDS011;11876;53.438;18.942;2023-04-16T12:25:10;7.88;;;3.85;;
23406;SDS011;11876;53.438;18.942;2023-04-16T12:28:13;4.78;;;4.32;;
23406;SDS011;11876;53.438;18.942;2023-04-16T12:31:17;5.13;;;4.50;;
23406;SDS011;11876;53.438;18.942;2023-04-16T12:34:20;7.63;;;6.97;;
23406;SDS011;11876;53.438;18.942;2023-04-16T12:37:43;4.85;;;4.10;;
23406;SDS011;11876;53.438;18.942;2023-04-16T12:40:45;4.90;;;4.50;;
23406;SDS011;11876;53.438;18.942;2023-04-16T12:43:48;5.35;;;4.35;;
23406;SDS011;11876;53.438;18.942;2023-04-16T12:46:51;6.88;;;4.43;;
23406;SDS011;11876;53.438;18.942;2023-04-16T12:49:54;5.05;;;4.63;;
23406;SDS011;11876;53.438;18.942;2023-04-16T12:52:58;5.85;;;5.25;;
23406;SDS011;11876;53.438;18.942;2023-04-16T12:56:00;5.30;;;4.85;;
23406;SDS011;11876;53.438;18.942;2023-04-16T12:59:03;5.32;;;4.85;;
23406;SDS011;11876;53.438;18.942;2023-04-16T13:02:05;5.45;;;4.97;;
23406;SDS011;11876;53.438;18.942;2023-04-16T13:05:08;5.82;;;4.90;;
23406;SDS011;11876;53.438;18.942;2023-04-16T13:08:11;5.30;;;4.80;;
23406;SDS011;11876;53.438;18.942;2023-04-16T13:11:13;5.45;;;4.95;;
23406;SDS011;11876;53.438;18.942;2023-04-16T13:14:16;5.20;;;4.80;;
23406;SDS011;11876;53.438;18.942;2023-04-16T13:17:18;4.75;;;4.35;;
23406;SDS011;11876;53.438;18.942;2023-04-16T13:20:21;4.80;;;4.40;;
23406;SDS011;11876;53.438;18.942;2023-04-16T13:23:25;10.65;;;5.72;;
23406;SDS011;11876;53.438;18.942;2023-04-16T13:26:27;8.02;;;4.82;;
23406;SDS011;11876;53.438;18.942;2023-04-16T13:29:30;5.20;;;4.78;;
23406;SDS011;11876;53.438;18.942;2023-04-16T13:32:32;5.32;;;4.82;;
23406;SDS011;11876;53.438;18.942;2023-04-16T13:35:35;5.80;;;5.25;;
23406;SDS011;11876;53.438;18.942;2023-04-16T13:38:37;5.35;;;4.85;;
23406;SDS011;11876;53.438;18.942;2023-04-16T13:41:40;4.80;;;4.40;;
23406;SDS011;11876;53.438;18.942;2023-04-16T13:44:42;5.50;;;5.00;;
23406;SDS011;11876;53.438;18.942;2023-04-16T13:47:49;5.60;;;5.10;;
23406;SDS011;11876;53.438;18.942;2023-04-16T13:50:51;10.23;;;5.57;;
23406;SDS011;11876;53.438;18.942;2023-04-16T13:53:54;4.75;;;4.35;;
23406;SDS011;11876;53.438;18.942;2023-04-16T13:56:56;31.85;;;29.08;;
23406;SDS011;11876;53.438;18.942;2023-04-16T13:59:59;11.77;;;10.75;;
23406;SDS011;11876;53.438;18.942;2023-04-16T14:03:01;4.45;;;4.15;;
23406;SDS011;11876;53.438;18.942;2023-04-16T14:06:06;4.95;;;4.55;;
23406;SDS011;11876;53.438;18.942;2023-04-16T14:09:09;6.43;;;5.93;;
23406;SDS011;11876;53.438;18.942;2023-04-16T14:12:12;52.85;;;29.83;;
23406;SDS011;11876;53.438;18.942;2023-04-16T14:15:15;58.50;;;33.83;;
23406;SDS011;11876;53.438;18.942;2023-04-16T14:18:17;14.50;;;7.80;;
23406;SDS011;11876;53.438;18.942;2023-04-16T14:21:19;5.10;;;4.00;;
23406;SDS011;11876;53.438;18.942;2023-04-16T14:24:22;7.95;;;5.93;;
23406;SDS011;11876;53.438;18.942;2023-04-16T14:27:24;6.13;;;5.53;;
23406;SDS011;11876;53.438;18.942;2023-04-16T14:30:28;6.30;;;5.70;;
23406;SDS011;11876;53.438;18.942;2023-04-16T14:33:30;6.20;;;5.60;;
23406;SDS011;11876;53.438;18.942;2023-04-16T14:36:34;5.28;;;4.78;;
23406;SDS011;11876;53.438;18.942;2023-04-16T14:39:37;3.72;;;3.42;;
23406;SDS011;11876;53.438;18.942;2023-04-16T14:42:39;6.75;;;5.50;;
23406;SDS011;11876;53.438;18.942;2023-04-16T14:45:42;5.32;;;4.82;;
23406;SDS011;11876;53.438;18.942;2023-04-16T14:48:45;5.22;;;4.70;;
23406;SDS011;11876;53.438;18.942;2023-04-16T14:51:48;7.95;;;5.57;;
23406;SDS011;11876;53.438;18.942;2023-04-16T14:54:53;6.40;;;5.75;;
23406;SDS011;11876;53.438;18.942;2023-04-16T14:57:56;40.25;;;33.97;;
23406;SDS011;11876;53.438;18.942;2023-04-16T15:01:00;5.03;;;4.53;;
23406;SDS011;11876;53.438;18.942;2023-04-16T15:04:03;5.40;;;4.88;;
23406;SDS011;11876;53.438;18.942;2023-04-16T15:07:05;4.68;;;4.28;;
23406;SDS011;11876;53.438;18.942;2023-04-16T15:10:11;4.45;;;4.05;;
23406;SDS011;11876;53.438;18.942;2023-04-16T15:13:13;4.80;;;4.38;;
23406;SDS011;11876;53.438;18.942;2023-04-16T15:16:17;7.07;;;5.82;;
23406;SDS011;11876;53.438;18.942;2023-04-16T15:19:20;9.18;;;6.80;;
23406;SDS011;11876;53.438;18.942;2023-04-16T15:22:23;7.85;;;5.90;;
23406;SDS011;11876;53.438;18.942;2023-04-16T15:25:26;12.27;;;7.28;;
23406;SDS011;11876;53.438;18.942;2023-04-16T15:28:29;8.45;;;7.20;;
23406;SDS011;11876;53.438;18.942;2023-04-16T15:31:32;11.63;;;6.83;;
23406;SDS011;11876;53.438;18.942;2023-04-16T15:34:34;16.23;;;9.38;;
23406;SDS011;11876;53.438;18.942;2023-04-16T15:37:37;16.35;;;9.50;;
23406;SDS011;11876;53.438;18.942;2023-04-16T15:40:39;25.60;;;13.13;;
23406;SDS011;11876;53.438;18.942;2023-04-16T15:43:42;20.95;;;10.10;;
23406;SDS011;11876;53.438;18.942;2023-04-16T15:46:45;16.95;;;9.38;;
23406;SDS011;11876;53.438;18.942;2023-04-16T15:49:48;10.25;;;7.60;;
23406;SDS011;11876;53.438;18.942;2023-04-16T15:52:50;9.95;;;8.07;;
23406;SDS011;11876;53.438;18.942;2023-04-16T15:55:53;10.57;;;7.70;;
23406;SDS011;11876;53.438;18.942;2023-04-16T15:58:55;13.43;;;7.78;;
23406;SDS011;11876;53.438;18.942;2023-04-16T16:01:58;12.65;;;7.40;;
23406;SDS011;11876;53.438;18.942;2023-04-16T16:05:01;11.65;;;7.25;;
23406;SDS011;11876;53.438;18.942;2023-04-16T16:08:05;7.87;;;6.03;;
23406;SDS011;11876;53.438;18.942;2023-04-16T16:11:07;7.75;;;6.88;;
23406;SDS011;11876;53.438;18.942;2023-04-16T16:14:10;11.18;;;8.65;;
23406;SDS011;11876;53.438;18.942;2023-04-16T16:17:13;9.50;;;8.00;;
23406;SDS011;11876;53.438;18.942;2023-04-16T16:20:15;10.00;;;7.75;;
23406;SDS011;11876;53.438;18.942;2023-04-16T16:23:17;12.07;;;7.80;;
23406;SDS011;11876;53.438;18.942;2023-04-16T16:26:20;13.43;;;8.35;;
23406;SDS011;11876;53.438;18.942;2023-04-16T16:29:23;8.33;;;5.43;;
23406;SDS011;11876;53.438;18.942;2023-04-16T16:32:26;15.57;;;7.47;;
23406;SDS011;11876;53.438;18.942;2023-04-16T16:35:28;9.98;;;7.82;;
23406;SDS011;11876;53.438;18.942;2023-04-16T16:38:33;17.15;;;9.82;;
23406;SDS011;11876;53.438;18.942;2023-04-16T16:41:35;7.10;;;6.10;;
23406;SDS011;11876;53.438;18.942;2023-04-16T16:44:42;10.38;;;6.50;;
23406;SDS011;11876;53.438;18.942;2023-04-16T16:47:47;8.15;;;5.25;;
23406;SDS011;11876;53.438;18.942;2023-04-16T16:50:49;7.85;;;6.45;;
23406;SDS011;11876;53.438;18.942;2023-04-16T16:53:52;9.50;;;7.97;;
23406;SDS011;11876;53.438;18.942;2023-04-16T16:56:54;6.55;;;5.93;;
23406;SDS011;11876;53.438;18.942;2023-04-16T16:59:57;71.15;;;64.65;;
23406;SDS011;11876;53.438;18.942;2023-04-16T17:03:00;52.63;;;48.28;;
23406;SDS011;11876;53.438;18.942;2023-04-16T17:06:03;61.97;;;56.67;;
23406;SDS011;11876;53.438;18.942;2023-04-16T17:09:05;28.90;;;25.95;;
23406;SDS011;11876;53.438;18.942;2023-04-16T17:12:08;16.50;;;14.80;;
23406;SDS011;11876;53.438;18.942;2023-04-16T17:15:11;15.02;;;12.00;;
23406;SDS011;11876;53.438;18.942;2023-04-16T17:18:13;14.68;;;12.00;;
23406;SDS011;11876;53.438;18.942;2023-04-16T17:21:16;13.50;;;11.63;;
23406;SDS011;11876;53.438;18.942;2023-04-16T17:24:19;11.45;;;8.85;;
23406;SDS011;11876;53.438;18.942;2023-04-16T17:27:22;12.35;;;8.90;;
23406;SDS011;11876;53.438;18.942;2023-04-16T17:30:24;23.70;;;13.32;;
23406;SDS011;11876;53.438;18.942;2023-04-16T17:33:28;15.15;;;10.75;;
23406;SDS011;11876;53.438;18.942;2023-04-16T17:36:31;13.68;;;10.27;;
23406;SDS011;11876;53.438;18.942;2023-04-16T17:39:34;13.65;;;10.80;;
23406;SDS011;11876;53.438;18.942;2023-04-16T17:42:37;8.07;;;7.25;;
23406;SDS011;11876;53.438;18.942;2023-04-16T17:45:40;7.78;;;5.25;;
23406;SDS011;11876;53.438;18.942;2023-04-16T17:48:42;5.53;;;4.88;;
23406;SDS011;11876;53.438;18.942;2023-04-16T17:51:45;7.22;;;5.82;;
23406;SDS011;11876;53.438;18.942;2023-04-16T17:54:48;6.28;;;5.10;;
23406;SDS011;11876;53.438;18.942;2023-04-16T17:57:50;5.43;;;4.93;;
23406;SDS011;11876;53.438;18.942;2023-04-16T18:00:53;7.03;;;5.07;;
23406;SDS011;11876;53.438;18.942;2023-04-16T18:03:56;5.57;;;3.78;;
23406;SDS011;11876;53.438;18.942;2023-04-16T18:06:59;5.70;;;4.72;;
23406;SDS011;11876;53.438;18.942;2023-04-16T18:10:02;4.70;;;4.30;;
23406;SDS011;11876;53.438;18.942;2023-04-16T18:13:05;5.07;;;4.57;;